Time,TemperatureF,DewpointF,PressureIn,WindDirection,WindDirectionDegrees,WindSpeedMPH,WindSpeedGustMPH,Humidity,HourlyPrecipIn,Conditions,Clouds,dailyrainin,SoftwareType,DateUTC
2013-04-22 00:11:00,47.0,38.0,30.47,East,95,0.0,-999.0,70,-99.99,,,0.00,weatherlink.com 1.10,2013-04-22 04:11:00,
2013-04-22 00:26:00,46.4,38.0,30.47,ENE,74,0.0,-999.0,72,-99.99,,,0.00,weatherlink.com 1.10,2013-04-22 04:26:00,
2013-04-22 00:41:00,45.8,37.0,30.48,East,89,0.0,-999.0,72,-99.99,,,0.00,weatherlink.com 1.10,2013-04-22 04:41:00,
2013-04-22 00:56:00,45.2,37.0,30.48,East,99,0.0,-999.0,73,-99.99,,,0.00,weatherlink.com 1.10,2013-04-22 04:56:00,
2013-04-22 01:11:00,44.7,36.0,30.48,East,100,0.0,-999.0,71,-99.99,,,0.00,weatherlink.com 1.10,2013-04-22 05:11:00,
2013-04-22 01:26:00,44.2,35.0,30.48,East,92,0.0,-999.0,71,-99.99,,,0.00,weatherlink.com 1.10,2013-04-22 05:26:00,
2013-04-22 01:41:00,43.7,35.0,30.47,ESE,116,0.0,-999.0,72,-99.99,,,0.00,weatherlink.com 1.10,2013-04-22 05:41:00,
2013-04-22 01:56:00,43.1,35.0,30.46,East,100,0.0,-999.0,73,-99.99,,,0.00,weatherlink.com 1.10,2013-04-22 05:56:00,
2013-04-22 02:11:00,42.6,35.0,30.46,East,94,0.0,-999.0,75,-99.99,,,0.00,weatherlink.com 1.10,2013-04-22 06:11:00,
2013-04-22 02:26:00,42.2,35.0,30.46,ESE,111,4.0,-999.0,75,-99.99,,,0.00,weatherlink.com 1.10,2013-04-22 06:26:00,
2013-04-22 02:41:00,41.7,35.0,30.45,NNW,331,0.0,-999.0,76,-99.99,,,0.00,weatherlink.com 1.10,2013-04-22 06:41:00,
2013-04-22 02:56:00,41.1,35.0,30.44,ESE,119,0.0,-999.0,78,-99.99,,,0.00,weatherlink.com 1.10,2013-04-22 06:56:00,
2013-04-22 03:11:00,40.7,35.0,30.43,ENE,60,0.0,-999.0,79,-99.99,,,0.00,weatherlink.com 1.10,2013-04-22 07:11:00,
2013-04-22 03:26:00,40.4,35.0,30.43,East,88,0.0,-999.0,80,-99.99,,,0.00,weatherlink.com 1.10,2013-04-22 07:26:00,
2013-04-22 03:41:00,40.0,34.0,30.42,SW,227,0.0,-999.0,80,-99.99,,,0.00,weatherlink.com 1.10,2013-04-22 07:41:00,
2013-04-22 03:56:00,39.7,35.0,30.42,NW,311,0.0,-999.0,82,-99.99,,,0.00,weatherlink.com 1.10,2013-04-22 07:56:00,
2013-04-22 04:11:00,39.2,35.0,30.42,NW,311,0.0,-999.0,83,-99.99,,,0.00,weatherlink.com 1.10,2013-04-22 08:11:00,
2013-04-22 04:26:00,38.8,34.0,30.41,NE,34,0.0,-999.0,84,-99.99,,,0.00,weatherlink.com 1.10,2013-04-22 08:26:00,
2013-04-22 04:41:00,38.5,34.0,30.40,North,355,0.0,-999.0,85,-99.99,,,0.00,weatherlink.com 1.10,2013-04-22 08:41:00,
2013-04-22 04:56:00,38.3,34.0,30.41,North,5,0.0,-999.0,85,-99.99,,,0.00,weatherlink.com 1.10,2013-04-22 08:56:00,
2013-04-22 05:11:00,38.1,34.0,30.42,East,91,0.0,-999.0,86,-99.99,,,0.00,weatherlink.com 1.10,2013-04-22 09:11:00,
2013-04-22 05:26:00,37.9,34.0,30.41,NE,49,1.0,-999.0,86,-99.99,,,0.00,weatherlink.com 1.10,2013-04-22 09:26:00,
2013-04-22 05:41:00,37.7,34.0,30.42,NE,49,0.0,-999.0,87,-99.99,,,0.00,weatherlink.com 1.10,2013-04-22 09:41:00,
2013-04-22 05:56:00,37.5,34.0,30.42,ESE,103,0.0,-999.0,87,-99.99,,,0.00,weatherlink.com 1.10,2013-04-22 09:56:00,
2013-04-22 06:11:00,37.4,34.0,30.42,NNE,33,0.0,-999.0,87,-99.99,,,0.00,weatherlink.com 1.10,2013-04-22 10:11:00,
2013-04-22 06:26:00,37.1,34.0,30.43,NNE,26,0.0,-999.0,88,-99.99,,,0.00,weatherlink.com 1.10,2013-04-22 10:26:00,
2013-04-22 06:41:00,37.0,34.0,30.43,NNW,337,0.0,-999.0,88,-99.99,,,0.00,weatherlink.com 1.10,2013-04-22 10:41:00,
2013-04-22 06:56:00,36.8,34.0,30.43,NW,312,0.0,-999.0,88,-99.99,,,0.00,weatherlink.com 1.10,2013-04-22 10:56:00,
2013-04-22 07:11:00,36.8,34.0,30.43,NNE,28,0.0,-999.0,89,-99.99,,,0.00,weatherlink.com 1.10,2013-04-22 11:11:00,
2013-04-22 07:26:00,37.3,34.0,30.43,NNE,28,2.0,-999.0,89,-99.99,,,0.00,weatherlink.com 1.10,2013-04-22 11:26:00,
2013-04-22 07:41:00,38.2,35.0,30.43,NNE,30,1.0,-999.0,88,-99.99,,,0.00,weatherlink.com 1.10,2013-04-22 11:41:00,
2013-04-22 07:56:00,39.2,35.0,30.42,NE,42,3.0,-999.0,85,-99.99,,,0.00,weatherlink.com 1.10,2013-04-22 11:56:00,
2013-04-22 08:11:00,40.1,35.0,30.43,ENE,61,1.0,-999.0,82,-99.99,,,0.00,weatherlink.com 1.10,2013-04-22 12:11:00,
2013-04-22 08:26:00,40.8,35.0,30.43,NNE,25,3.0,-999.0,80,-99.99,,,0.00,weatherlink.com 1.10,2013-04-22 12:26:00,
2013-04-22 08:41:00,41.6,35.0,30.43,NNW,336,5.0,-999.0,78,-99.99,,,0.00,weatherlink.com 1.10,2013-04-22 12:41:00,
2013-04-22 08:56:00,42.4,36.0,30.43,NNE,30,4.0,-999.0,77,-99.99,,,0.00,weatherlink.com 1.10,2013-04-22 12:56:00,
2013-04-22 09:11:00,43.0,36.0,30.43,NNW,345,1.0,-999.0,75,-99.99,,,0.00,weatherlink.com 1.10,2013-04-22 13:11:00,
2013-04-22 09:26:00,44.1,36.0,30.43,North,5,4.0,-999.0,73,-99.99,,,0.00,weatherlink.com 1.10,2013-04-22 13:26:00,
2013-04-22 09:41:00,44.7,36.0,30.43,West,274,1.0,-999.0,72,-99.99,,,0.00,weatherlink.com 1.10,2013-04-22 13:41:00,
2013-04-22 09:56:00,45.0,36.0,30.43,NNE,31,4.0,-999.0,70,-99.99,,,0.00,weatherlink.com 1.10,2013-04-22 13:56:00,
2013-04-22 10:11:00,46.8,36.0,30.43,NE,43,2.0,-999.0,67,-99.99,,,0.00,weatherlink.com 1.10,2013-04-22 14:11:00,
2013-04-22 10:26:00,47.6,36.0,30.42,NNE,15,4.0,-999.0,64,-99.99,,,0.00,weatherlink.com 1.10,2013-04-22 14:26:00,
2013-04-22 10:41:00,48.1,36.0,30.42,North,5,3.0,-999.0,63,-99.99,,,0.00,weatherlink.com 1.10,2013-04-22 14:41:00,
2013-04-22 10:56:00,48.8,36.0,30.42,NNW,330,1.0,-999.0,62,-99.99,,,0.00,weatherlink.com 1.10,2013-04-22 14:56:00,
2013-04-22 11:11:00,50.4,37.0,30.41,East,84,1.0,-999.0,61,-99.99,,,0.00,weatherlink.com 1.10,2013-04-22 15:11:00,
2013-04-22 11:26:00,50.5,38.0,30.40,North,9,4.0,-999.0,62,-99.99,,,0.00,weatherlink.com 1.10,2013-04-22 15:26:00,
2013-04-22 11:41:00,51.9,38.0,30.40,North,5,7.0,-999.0,59,-99.99,,,0.00,weatherlink.com 1.10,2013-04-22 15:41:00,
2013-04-22 11:56:00,52.2,38.0,30.41,ESE,113,0.0,-999.0,58,-99.99,,,0.00,weatherlink.com 1.10,2013-04-22 15:56:00,
2013-04-22 12:11:00,52.9,39.0,30.40,NW,315,6.0,-999.0,59,-99.99,,,0.00,weatherlink.com 1.10,2013-04-22 16:11:00,
2013-04-22 12:26:00,53.0,38.0,30.39,NE,44,5.0,-999.0,58,-99.99,,,0.00,weatherlink.com 1.10,2013-04-22 16:26:00,
2013-04-22 12:41:00,53.6,38.0,30.37,NNW,331,2.0,-999.0,55,-99.99,,,0.00,weatherlink.com 1.10,2013-04-22 16:41:00,
2013-04-22 12:56:00,54.3,38.0,30.37,NW,317,2.0,-999.0,54,-99.99,,,0.00,weatherlink.com 1.10,2013-04-22 16:56:00,
2013-04-22 13:11:00,55.6,38.0,30.36,NNE,27,5.0,-999.0,53,-99.99,,,0.00,weatherlink.com 1.10,2013-04-22 17:11:00,
2013-04-22 13:26:00,55.8,39.0,30.35,NNE,13,3.0,-999.0,53,-99.99,,,0.00,weatherlink.com 1.10,2013-04-22 17:26:00,
2013-04-22 13:41:00,56.5,39.0,30.34,NE,51,2.0,-999.0,52,-99.99,,,0.00,weatherlink.com 1.10,2013-04-22 17:41:00,
2013-04-22 13:56:00,58.0,40.0,30.33,NNW,340,3.0,-999.0,51,-99.99,,,0.00,weatherlink.com 1.10,2013-04-22 17:56:00,
2013-04-22 14:11:00,57.7,40.0,30.32,NNE,15,2.0,-999.0,52,-99.99,,,0.00,weatherlink.com 1.10,2013-04-22 18:11:00,
2013-04-22 14:26:00,59.0,39.0,30.32,WNW,288,2.0,-999.0,48,-99.99,,,0.00,weatherlink.com 1.10,2013-04-22 18:26:00,
2013-04-22 14:41:00,59.1,38.0,30.32,NE,48,1.0,-999.0,46,-99.99,,,0.00,weatherlink.com 1.10,2013-04-22 18:41:00,
2013-04-22 14:56:00,59.4,39.0,30.31,ENE,75,4.0,-999.0,47,-99.99,,,0.00,weatherlink.com 1.10,2013-04-22 18:56:00,
2013-04-22 15:11:00,59.3,40.0,30.30,NE,44,0.0,-999.0,49,-99.99,,,0.00,weatherlink.com 1.10,2013-04-22 19:11:00,
2013-04-22 15:26:00,59.3,40.0,30.30,NE,38,0.0,-999.0,49,-99.99,,,0.00,weatherlink.com 1.10,2013-04-22 19:26:00,
2013-04-22 15:41:00,60.7,41.0,30.29,SE,146,4.0,-999.0,48,-99.99,,,0.00,weatherlink.com 1.10,2013-04-22 19:41:00,
2013-04-22 15:56:00,60.8,40.0,30.29,NE,46,2.0,-999.0,47,-99.99,,,0.00,weatherlink.com 1.10,2013-04-22 19:56:00,
2013-04-22 16:11:00,60.5,42.0,30.28,NNE,13,0.0,-999.0,50,-99.99,,,0.00,weatherlink.com 1.10,2013-04-22 20:11:00,
2013-04-22 16:26:00,60.2,41.0,30.27,ESE,121,1.0,-999.0,49,-99.99,,,0.00,weatherlink.com 1.10,2013-04-22 20:26:00,
2013-04-22 16:41:00,60.0,42.0,30.27,ESE,119,1.0,-999.0,51,-99.99,,,0.00,weatherlink.com 1.10,2013-04-22 20:41:00,
2013-04-22 16:56:00,59.3,42.0,30.27,North,11,0.0,-999.0,53,-99.99,,,0.00,weatherlink.com 1.10,2013-04-22 20:56:00,
2013-04-22 17:11:00,59.0,41.0,30.27,East,94,1.0,-999.0,52,-99.99,,,0.00,weatherlink.com 1.10,2013-04-22 21:11:00,
2013-04-22 17:26:00,58.4,41.0,30.27,SE,134,0.0,-999.0,53,-99.99,,,0.00,weatherlink.com 1.10,2013-04-22 21:26:00,
2013-04-22 17:41:00,58.3,41.0,30.27,NE,44,1.0,-999.0,54,-99.99,,,0.00,weatherlink.com 1.10,2013-04-22 21:41:00,
2013-04-22 17:56:00,58.1,42.0,30.27,West,265,0.0,-999.0,55,-99.99,,,0.00,weatherlink.com 1.10,2013-04-22 21:56:00,
2013-04-22 18:11:00,57.5,42.0,30.27,NE,52,5.0,-999.0,56,-99.99,,,0.00,weatherlink.com 1.10,2013-04-22 22:11:00,
2013-04-22 18:26:00,57.0,42.0,30.27,North,355,3.0,-999.0,58,-99.99,,,0.00,weatherlink.com 1.10,2013-04-22 22:26:00,
2013-04-22 18:41:00,56.8,42.0,30.26,NNW,348,0.0,-999.0,59,-99.99,,,0.00,weatherlink.com 1.10,2013-04-22 22:41:00,
2013-04-22 18:56:00,56.8,43.0,30.27,NE,36,2.0,-999.0,60,-99.99,,,0.00,weatherlink.com 1.10,2013-04-22 22:56:00,
2013-04-22 19:11:00,56.2,43.0,30.27,NNE,13,5.0,-999.0,61,-99.99,,,0.00,weatherlink.com 1.10,2013-04-22 23:11:00,
2013-04-22 19:26:00,55.9,43.0,30.27,North,360,1.0,-999.0,62,-99.99,,,0.00,weatherlink.com 1.10,2013-04-22 23:26:00,
2013-04-22 19:41:00,55.9,43.0,30.27,SSE,165,1.0,-999.0,63,-99.99,,,0.00,weatherlink.com 1.10,2013-04-22 23:41:00,
2013-04-22 19:56:00,55.5,43.0,30.28,WNW,290,1.0,-999.0,63,-99.99,,,0.00,weatherlink.com 1.10,2013-04-22 23:56:00,
2013-04-22 20:11:00,55.3,43.0,30.28,ESE,117,3.0,-999.0,64,-99.99,,,0.00,weatherlink.com 1.10,2013-04-23 00:11:00,
2013-04-22 20:26:00,55.1,43.0,30.28,NNW,329,1.0,-999.0,64,-99.99,,,0.00,weatherlink.com 1.10,2013-04-23 00:26:00,
2013-04-22 20:41:00,54.8,43.0,30.28,North,355,0.0,-999.0,65,-99.99,,,0.00,weatherlink.com 1.10,2013-04-23 00:41:00,
2013-04-22 20:56:00,54.7,43.0,30.29,NW,313,0.0,-999.0,65,-99.99,,,0.00,weatherlink.com 1.10,2013-04-23 00:56:00,
2013-04-22 21:11:00,54.4,43.0,30.29,NE,46,3.0,-999.0,66,-99.99,,,0.00,weatherlink.com 1.10,2013-04-23 01:11:00,
2013-04-22 21:26:00,54.1,43.0,30.29,East,88,0.0,-999.0,66,-99.99,,,0.00,weatherlink.com 1.10,2013-04-23 01:26:00,
2013-04-22 21:41:00,53.9,43.0,30.29,ESE,118,0.0,-999.0,67,-99.99,,,0.00,weatherlink.com 1.10,2013-04-23 01:41:00,
2013-04-22 21:56:00,53.5,43.0,30.30,ENE,57,1.0,-999.0,68,-99.99,,,0.00,weatherlink.com 1.10,2013-04-23 01:56:00,
2013-04-22 22:11:00,52.8,43.0,30.30,NNE,18,0.0,-999.0,69,-99.99,,,0.00,weatherlink.com 1.10,2013-04-23 02:11:00,
2013-04-22 22:26:00,52.4,43.0,30.30,NNW,342,1.0,-999.0,71,-99.99,,,0.00,weatherlink.com 1.10,2013-04-23 02:26:00,
2013-04-22 22:41:00,51.9,44.0,30.30,East,91,1.0,-999.0,74,-99.99,,,0.00,weatherlink.com 1.10,2013-04-23 02:41:00,
2013-04-22 22:56:00,51.2,44.0,30.30,NNE,25,2.0,-999.0,77,-99.99,,,0.00,weatherlink.com 1.10,2013-04-23 02:56:00,
2013-04-22 23:11:00,50.0,45.0,30.29,NNW,346,3.0,-999.0,82,-99.99,,,0.00,weatherlink.com 1.10,2013-04-23 03:11:00,
2013-04-22 23:26:00,49.2,45.0,30.29,NE,47,4.0,-999.0,85,-99.99,,,0.00,weatherlink.com 1.10,2013-04-23 03:26:00,
2013-04-22 23:41:00,48.6,45.0,30.28,NE,38,2.0,-999.0,87,-99.99,,,0.00,weatherlink.com 1.10,2013-04-23 03:41:00,
2013-04-22 23:56:00,48.6,45.0,30.27,North,355,1.0,-999.0,87,-99.99,,,0.00,weatherlink.com 1.10,2013-04-23 03:56:00,